Time;durP1;ratioP1;P1;durP2;ratioP2;P2;SDS_P1;SDS_P2;PMS_P1;PMS_P2;Temp;Humidity;BMP_temperature;BMP_pressure;BME280_temperature;BME280_humidity;BME280_pressure;Samples;Min_cycle;Max_cycle;Signal;HPM_P1;HPM_P2
2021/05/31 00:01:38;;;;;;;0.40;0.30;;;11.60;98.40;;;;;;5020354;28;20945;-77
2021/05/31 00:04:04;;;;;;;0.40;0.30;;;11.10;99.90;;;;;;5011134;28;20420;-76
2021/05/31 00:06:39;;;;;;;0.40;0.30;;;11.20;99.70;;;;;;5010894;28;20395;-77
2021/05/31 00:09:06;;;;;;;0.40;0.20;;;11.20;99.90;;;;;;5010854;28;20420;-77
2021/05/31 00:11:31;;;;;;;0.40;0.30;;;11.20;99.90;;;;;;4993517;28;20439;-76
2021/05/31 00:13:58;;;;;;;0.40;0.20;;;11.70;99.50;;;;;;5010658;28;20412;-76
2021/05/31 00:16:24;;;;;;;0.40;0.30;;;11.20;98.90;;;;;;5010638;28;20384;-76
2021/05/31 00:18:50;;;;;;;0.40;0.30;;;11.10;98.30;;;;;;5011052;28;20384;-75
2021/05/31 00:21:17;;;;;;;0.40;0.20;;;11.10;99.10;;;;;;5010310;28;20800;-76
2021/05/31 00:23:44;;;;;;;0.40;0.30;;;11.10;99.00;;;;;;4993459;28;20926;-76
2021/05/31 00:26:10;;;;;;;0.40;0.20;;;11.00;99.90;;;;;;5010463;28;20392;-76
2021/05/31 00:28:36;;;;;;;0.40;0.20;;;11.60;99.90;;;;;;5010929;28;20499;-77
2021/05/31 00:31:02;;;;;;;0.40;0.30;;;11.10;99.90;;;;;;5010979;28;20763;-75
2021/05/31 00:33:27;;;;;;;0.40;0.30;;;10.80;99.90;;;;;;5010336;28;20439;-76
2021/05/31 00:35:53;;;;;;;0.40;0.30;;;10.90;98.60;;;;;;5011167;28;20724;-76
2021/05/31 00:38:18;;;;;;;0.40;0.30;;;11.00;99.90;;;;;;4992781;28;20845;-76
2021/05/31 00:40:44;;;;;;;0.40;0.20;;;11.10;99.70;;;;;;5011167;28;20504;-75
2021/05/31 00:43:10;;;;;;;0.40;0.30;;;10.80;98.80;;;;;;5009999;28;20393;-77
2021/05/31 00:45:35;;;;;;;0.40;0.30;;;10.80;99.80;;;;;;5012073;28;20393;-75
2021/05/31 00:48:01;;;;;;;0.40;0.30;;;10.70;99.90;;;;;;4995041;28;20385;-75
2021/05/31 00:50:27;;;;;;;0.40;0.30;;;10.90;99.90;;;;;;5010354;28;20470;-75
2021/05/31 00:52:53;;;;;;;0.40;0.30;;;10.60;99.60;;;;;;5010955;28;20389;-76
2021/05/31 00:55:18;;;;;;;0.40;0.20;;;10.60;99.80;;;;;;4992342;28;20412;-76
2021/05/31 00:57:44;;;;;;;0.40;0.30;;;10.60;99.30;;;;;;5010511;28;20472;-77
2021/05/31 01:00:11;;;;;;;0.40;0.30;;;10.70;99.80;;;;;;5009816;28;20380;-77
2021/05/31 01:02:37;;;;;;;0.40;0.20;;;10.70;98.00;;;;;;5011584;28;20461;-77
2021/05/31 01:05:04;;;;;;;0.40;0.30;;;10.80;97.50;;;;;;5030380;28;20379;-75
2021/05/31 01:07:41;;;;;;;0.40;0.30;;;10.70;97.50;;;;;;5029788;28;20853;-76
2021/05/31 01:10:46;;;;;;;0.40;0.30;;;10.70;97.80;;;;;;5016216;28;20437;-76
2021/05/31 01:13:41;;;;;;;0.40;0.20;;;10.60;96.40;;;;;;4995690;28;20403;-77
2021/05/31 01:16:11;;;;;;;0.40;0.30;;;10.60;98.10;;;;;;5033885;28;20415;-76
2021/05/31 01:18:42;;;;;;;0.40;0.30;;;10.60;98.00;;;;;;5033996;28;20399;-76
2021/05/31 01:21:13;;;;;;;0.40;0.30;;;10.80;95.70;;;;;;5016176;28;20461;-76
2021/05/31 01:23:41;;;;;;;0.40;0.20;;;10.80;97.30;;;;;;5033912;28;20414;-76
2021/05/31 01:26:23;;;;;;;0.40;0.20;;;10.90;94.50;;;;;;5015774;28;20888;-75
2021/05/31 01:29:02;;;;;;;0.40;0.20;;;10.80;93.50;;;;;;5033916;28;20379;-75
2021/05/31 01:31:48;;;;;;;0.40;0.20;;;10.80;96.40;;;;;;5015263;28;20399;-75
2021/05/31 01:34:23;;;;;;;0.40;0.30;;;10.90;94.10;;;;;;5033122;28;20415;-76
2021/05/31 01:36:54;;;;;;;0.40;0.20;;;10.90;93.90;;;;;;5015801;28;20395;-75
2021/05/31 01:39:23;;;;;;;0.40;0.30;;;11.10;92.10;;;;;;5015204;28;20438;-77
2021/05/31 01:41:50;;;;;;;0.40;0.30;;;11.20;91.80;;;;;;5033427;28;20383;-76
2021/05/31 01:44:18;;;;;;;0.40;0.30;;;11.10;92.10;;;;;;5033082;28;20481;-76
2021/05/31 01:46:45;;;;;;;0.40;0.20;;;11.10;92.90;;;;;;5033329;28;20433;-76
2021/05/31 01:49:12;;;;;;;0.40;0.30;;;11.00;92.40;;;;;;5033262;28;20785;-79
2021/05/31 01:51:39;;;;;;;0.40;0.20;;;10.90;93.20;;;;;;5032909;28;20817;-75
2021/05/31 01:54:10;;;;;;;0.40;0.20;;;10.90;93.90;;;;;;5033595;28;20403;-76
2021/05/31 01:56:36;;;;;;;0.40;0.20;;;10.70;94.50;;;;;;5032533;28;20734;-76
2021/05/31 01:59:04;;;;;;;0.40;0.30;;;10.60;95.20;;;;;;5032816;28;20870;-76
2021/05/31 02:01:34;;;;;;;0.40;0.20;;;10.60;99.70;;;;;;5032768;28;20414;-75
2021/05/31 02:04:00;;;;;;;0.40;0.30;;;10.60;97.80;;;;;;5033220;28;20395;-75
2021/05/31 02:06:26;;;;;;;0.40;0.20;;;10.40;98.90;;;;;;5032113;28;20729;-75
2021/05/31 02:08:52;;;;;;;0.40;0.20;;;10.70;96.60;;;;;;5015347;28;20570;-76
2021/05/31 02:11:45;;;;;;;0.40;0.20;;;10.30;98.20;;;;;;5031964;28;20391;-76
2021/05/31 02:14:16;;;;;;;0.40;0.30;;;10.20;98.80;;;;;;5015061;28;20501;-76
2021/05/31 02:16:54;;;;;;;0.40;0.30;;;10.30;97.60;;;;;;5032479;28;20426;-75
2021/05/31 02:19:21;;;;;;;0.40;0.30;;;10.20;98.80;;;;;;5013543;28;20507;-76
2021/05/31 02:21:50;;;;;;;0.40;0.20;;;10.50;98.40;;;;;;5032726;28;20384;-76
2021/05/31 02:24:17;;;;;;;0.40;0.20;;;11.30;99.90;;;;;;5032152;28;20422;-76
2021/05/31 02:26:42;;;;;;;0.40;0.30;;;10.10;97.50;;;;;;5032691;28;20386;-75
2021/05/31 02:29:08;;;;;;;0.40;0.30;;;10.10;97.00;;;;;;5032430;28;20383;-75
2021/05/31 02:31:34;;;;;;;0.40;0.20;;;10.30;96.80;;;;;;5032221;28;20390;-76
2021/05/31 02:33:59;;;;;;;0.40;0.30;;;10.20;97.60;;;;;;5032223;28;20399;-75
2021/05/31 02:36:25;;;;;;;0.40;0.30;;;10.20;98.60;;;;;;5031809;28;20392;-76
2021/05/31 02:38:51;;;;;;;0.40;0.23;;;10.20;98.60;;;;;;5032539;28;20769;-75
2021/05/31 02:41:17;;;;;;;0.40;0.30;;;10.00;98.80;;;;;;5031410;28;20415;-74
2021/05/31 02:43:42;;;;;;;0.40;0.30;;;9.80;99.00;;;;;;5014749;28;20525;-77
2021/05/31 02:46:08;;;;;;;0.40;0.30;;;9.80;99.20;;;;;;5032176;28;20738;-76
2021/05/31 02:48:34;;;;;;;0.40;0.20;;;9.80;99.30;;;;;;5032958;28;20480;-75
2021/05/31 02:51:00;;;;;;;0.40;0.30;;;9.80;99.90;;;;;;5034303;28;20407;-75
2021/05/31 02:53:26;;;;;;;0.40;0.30;;;10.80;99.90;;;;;;5032499;28;20383;-75
2021/05/31 02:55:53;;;;;;;0.40;0.20;;;10.00;99.90;;;;;;5014336;28;20398;-75
2021/05/31 02:58:18;;;;;;;0.40;0.20;;;9.90;99.90;;;;;;5013823;28;20834;-75
2021/05/31 03:00:45;;;;;;;0.40;0.30;;;10.10;99.90;;;;;;5028705;28;20476;-74
2021/05/31 03:03:10;;;;;;;0.40;0.30;;;9.80;99.90;;;;;;4994599;28;20891;-75
2021/05/31 03:05:37;;;;;;;0.40;0.30;;;9.60;99.90;;;;;;5011727;28;20401;-75
2021/05/31 03:08:03;;;;;;;0.40;0.30;;;9.80;99.90;;;;;;5012133;28;20476;-75
2021/05/31 03:10:29;;;;;;;0.40;0.30;;;9.70;99.90;;;;;;5011447;28;20456;-75
2021/05/31 03:12:55;;;;;;;0.40;0.30;;;9.60;99.90;;;;;;4994111;28;20404;-76
2021/05/31 03:15:22;;;;;;;0.40;0.30;;;9.80;99.90;;;;;;5010999;28;20409;-76
2021/05/31 03:17:50;;;;;;;0.40;0.20;;;10.00;98.90;;;;;;5011624;28;20392;-75
2021/05/31 03:20:17;;;;;;;0.40;0.25;;;9.70;99.90;;;;;;4994225;28;20882;-75
2021/05/31 03:22:43;;;;;;;0.40;0.30;;;9.80;99.90;;;;;;5011553;28;20479;-77
2021/05/31 03:25:10;;;;;;;0.40;0.30;;;9.90;99.90;;;;;;5011594;28;20502;-74
2021/05/31 03:27:36;;;;;;;0.40;0.20;;;9.40;99.90;;;;;;4993324;28;20482;-75
2021/05/31 03:30:05;;;;;;;0.40;0.30;;;9.30;99.90;;;;;;5011662;28;20400;-76
2021/05/31 03:32:30;;;;;;;0.40;0.30;;;9.60;99.90;;;;;;5011680;28;20399;-77
2021/05/31 03:34:56;;;;;;;0.40;0.30;;;9.40;99.90;;;;;;5011683;28;20413;-77
2021/05/31 03:37:22;;;;;;;0.40;0.30;;;9.50;99.90;;;;;;5010932;28;20381;-77
2021/05/31 03:39:47;;;;;;;0.40;0.20;;;10.50;99.90;;;;;;5011324;28;20392;-76
2021/05/31 03:42:13;;;;;;;0.40;0.30;;;9.60;99.90;;;;;;5011736;28;20398;-76
2021/05/31 03:44:38;;;;;;;0.40;0.30;;;9.50;99.90;;;;;;4993242;28;20439;-75
2021/05/31 03:47:04;;;;;;;0.40;0.20;;;10.10;99.90;;;;;;5011219;28;20391;-74
2021/05/31 03:49:30;;;;;;;0.40;0.30;;;9.40;99.90;;;;;;4993249;28;20871;-75
2021/05/31 03:51:55;;;;;;;0.40;0.30;;;9.00;99.90;;;;;;4993371;28;20879;-75
2021/05/31 03:54:21;;;;;;;0.40;0.30;;;9.40;99.90;;;;;;4993162;28;20419;-74
2021/05/31 03:56:46;;;;;;;0.40;0.30;;;9.50;99.90;;;;;;5011189;28;20395;-75
2021/05/31 03:59:12;;;;;;;0.40;0.20;;;10.20;99.90;;;;;;5011359;28;20389;-75
2021/05/31 04:01:38;;;;;;;0.40;0.20;;;9.60;99.90;;;;;;5010515;28;20420;-76
2021/05/31 04:04:03;;;;;;;0.40;0.30;;;9.40;99.90;;;;;;5011625;28;20476;-75
2021/05/31 04:11:48;;;;;;;0.40;0.30;;;9.40;99.70;;;;;;5011669;28;20400;-75
2021/05/31 04:14:16;;;;;;;0.40;0.20;;;9.60;99.90;;;;;;5011601;28;20412;-74
2021/05/31 04:16:48;;;;;;;0.40;0.20;;;9.50;99.90;;;;;;5009495;28;20401;-74
2021/05/31 04:19:15;;;;;;;0.40;0.20;;;9.50;99.90;;;;;;5011683;28;20472;-74
2021/05/31 04:21:44;;;;;;;0.40;0.20;;;10.40;99.90;;;;;;5010808;28;20384;-78
2021/05/31 04:24:10;;;;;;;0.40;0.30;;;9.60;99.90;;;;;;5011811;28;20811;-77
2021/05/31 04:26:36;;;;;;;0.40;0.30;;;9.50;99.10;;;;;;5010818;28;20467;-76
2021/05/31 04:29:04;;;;;;;0.40;0.20;;;10.20;99.90;;;;;;5010039;28;20523;-74
2021/05/31 04:31:30;;;;;;;0.40;0.20;;;9.60;99.90;;;;;;5010656;28;20388;-77
2021/05/31 04:33:56;;;;;;;0.40;0.30;;;9.50;99.20;;;;;;5010063;28;20439;-74
2021/05/31 04:36:21;;;;;;;0.40;0.20;;;9.50;99.80;;;;;;5010682;28;20554;-77
2021/05/31 04:38:47;;;;;;;0.40;0.30;;;9.60;98.50;;;;;;5011007;28;20384;-75
2021/05/31 04:41:13;;;;;;;0.40;0.20;;;9.60;99.60;;;;;;5011087;28;20411;-75
2021/05/31 04:43:39;;;;;;;0.40;0.30;;;9.60;98.40;;;;;;5011126;28;20412;-74
2021/05/31 04:46:04;;;;;;;0.40;0.30;;;9.70;97.90;;;;;;5015066;28;20385;-74
2021/05/31 04:48:31;;;;;;;0.40;0.30;;;9.60;98.80;;;;;;5014381;28;20465;-75
2021/05/31 04:51:01;;;;;;;0.40;0.30;;;9.80;98.70;;;;;;5013714;28;21571;-74
2021/05/31 04:53:28;;;;;;;0.40;0.20;;;9.80;98.70;;;;;;5012860;28;20455;-74
2021/05/31 04:55:55;;;;;;;0.40;0.30;;;9.80;98.40;;;;;;5014612;28;20439;-74
2021/05/31 04:58:21;;;;;;;0.40;0.30;;;9.90;98.10;;;;;;5014807;28;20385;-77
2021/05/31 05:00:48;;;;;;;0.40;0.20;;;10.10;97.60;;;;;;5014484;28;20381;-77
2021/05/31 05:03:14;;;;;;;0.40;0.20;;;10.00;97.80;;;;;;5014476;28;20743;-74
2021/05/31 05:05:39;;;;;;;0.40;0.30;;;10.20;98.90;;;;;;4996454;28;20397;-74
2021/05/31 05:08:06;;;;;;;0.40;0.20;;;10.10;99.30;;;;;;5014351;28;20713;-75
2021/05/31 05:10:32;;;;;;;0.40;0.20;;;10.40;99.90;;;;;;5013680;28;20475;-75
2021/05/31 05:12:57;;;;;;;0.40;0.30;;;10.30;99.30;;;;;;5014554;28;20389;-74
2021/05/31 05:15:25;;;;;;;0.40;0.30;;;10.40;98.10;;;;;;5014373;28;20420;-76
2021/05/31 05:17:51;;;;;;;0.40;0.30;;;10.70;99.60;;;;;;5014416;28;20762;-76
2021/05/31 05:20:18;;;;;;;0.40;0.20;;;10.70;99.90;;;;;;5014149;28;20875;-77
2021/05/31 05:22:44;;;;;;;0.40;0.30;;;10.70;99.90;;;;;;5013754;28;21168;-77
2021/05/31 05:25:11;;;;;;;0.40;0.30;;;10.70;99.90;;;;;;5014377;28;20391;-77
2021/05/31 05:27:37;;;;;;;0.40;0.30;;;10.80;99.90;;;;;;5013580;28;20393;-77
2021/05/31 05:30:05;;;;;;;0.40;0.30;;;10.90;99.90;;;;;;4996616;28;20453;-76
2021/05/31 05:32:31;;;;;;;0.40;0.30;;;11.00;98.70;;;;;;4995861;28;20397;-75
2021/05/31 05:35:06;;;;;;;0.40;0.30;;;11.10;99.90;;;;;;5014120;28;20474;-75
2021/05/31 05:37:32;;;;;;;0.40;0.20;;;11.20;99.90;;;;;;4995932;28;20756;-75
2021/05/31 05:47:43;;;;;;;0.40;0.20;;;11.40;99.90;;;;;;5013225;28;20400;-77
2021/05/31 05:50:12;;;;;;;0.40;0.20;;;11.60;99.90;;;;;;4996305;28;20399;-76
2021/05/31 05:52:37;;;;;;;0.40;0.20;;;11.70;99.70;;;;;;5014269;28;20750;-76
2021/05/31 05:55:06;;;;;;;0.40;0.20;;;12.10;99.90;;;;;;5013783;28;20426;-75
2021/05/31 05:57:32;;;;;;;0.40;0.20;;;11.90;99.90;;;;;;5032409;28;20471;-75
2021/05/31 06:00:00;;;;;;;0.40;0.20;;;12.10;98.00;;;;;;5015316;28;20486;-75
2021/05/31 06:02:26;;;;;;;0.40;0.30;;;12.50;98.50;;;;;;5015621;28;20833;-76
2021/05/31 06:04:52;;;;;;;0.40;0.22;;;12.40;95.70;;;;;;4995623;28;20397;-74
2021/05/31 06:07:18;;;;;;;0.40;0.30;;;12.60;95.60;;;;;;5013006;28;20381;-75
2021/05/31 06:09:43;;;;;;;0.40;0.30;;;12.70;98.10;;;;;;5012082;28;20748;-74
2021/05/31 06:12:09;;;;;;;0.40;0.30;;;12.90;94.60;;;;;;5012719;28;20400;-74
2021/05/31 06:14:35;;;;;;;0.40;0.30;;;13.20;88.70;;;;;;4994513;28;20436;-75
2021/05/31 06:17:00;;;;;;;0.40;0.20;;;13.50;83.00;;;;;;5013008;28;20381;-75
2021/05/31 06:19:28;;;;;;;0.40;0.30;;;13.70;82.30;;;;;;5012366;28;20392;-75
2021/05/31 06:21:54;;;;;;;0.40;0.30;;;13.80;82.80;;;;;;5012044;28;20389;-75
2021/05/31 06:24:20;;;;;;;0.40;0.20;;;13.80;82.00;;;;;;5012753;28;20381;-75
2021/05/31 06:26:46;;;;;;;0.40;0.20;;;14.10;78.40;;;;;;5013493;28;20392;-75
2021/05/31 06:29:11;;;;;;;0.40;0.20;;;14.40;72.30;;;;;;4995905;28;20416;-74
2021/05/31 06:31:37;;;;;;;0.40;0.20;;;14.30;79.80;;;;;;4993861;28;20428;-74
2021/05/31 06:34:03;;;;;;;0.40;0.30;;;14.20;82.10;;;;;;5011194;28;20506;-76
2021/05/31 06:36:31;;;;;;;0.40;0.30;;;14.10;83.60;;;;;;5011986;28;20440;-78
2021/05/31 06:38:56;;;;;;;0.40;0.30;;;14.00;83.90;;;;;;5012076;28;20393;-77
2021/05/31 06:41:22;;;;;;;0.40;0.20;;;14.00;85.70;;;;;;5012414;28;20889;-77
2021/05/31 06:43:48;;;;;;;0.40;0.30;;;13.80;85.40;;;;;;5011758;28;20819;-76
2021/05/31 06:46:13;;;;;;;0.40;0.20;;;13.60;86.70;;;;;;5012430;28;20389;-75
2021/05/31 06:48:39;;;;;;;0.40;0.20;;;13.60;87.20;;;;;;4994407;28;20393;-77
2021/05/31 06:51:05;;;;;;;0.40;0.30;;;13.60;88.10;;;;;;5012513;28;20404;-74
2021/05/31 06:53:31;;;;;;;0.40;0.30;;;13.70;87.40;;;;;;5010412;28;20480;-77
2021/05/31 06:55:57;;;;;;;0.40;0.28;;;13.70;87.30;;;;;;5012473;28;20504;-76
2021/05/31 06:58:22;;;;;;;0.40;0.30;;;13.70;87.20;;;;;;4994766;28;20420;-77
2021/05/31 07:00:48;;;;;;;0.40;0.20;;;13.80;87.70;;;;;;5011540;28;20483;-76
2021/05/31 07:03:14;;;;;;;0.40;0.20;;;13.80;88.10;;;;;;5010585;28;20464;-76
2021/05/31 07:05:39;;;;;;;0.40;0.30;;;13.90;88.80;;;;;;5003027;28;20763;-77
2021/05/31 07:08:06;;;;;;;0.77;0.40;;;14.00;88.10;;;;;;5005874;28;20391;-78
2021/05/31 07:10:32;;;;;;;0.40;0.20;;;14.30;86.60;;;;;;5008948;28;20778;-76
2021/05/31 07:12:57;;;;;;;0.40;0.20;;;14.30;85.00;;;;;;5008337;28;20490;-77
2021/05/31 07:15:25;;;;;;;0.40;0.20;;;14.40;85.10;;;;;;5005745;28;20427;-77
2021/05/31 07:17:51;;;;;;;0.40;0.20;;;14.60;84.60;;;;;;5008227;28;20603;-76
2021/05/31 07:20:19;;;;;;;0.40;0.30;;;14.70;84.10;;;;;;5008423;28;20750;-76
2021/05/31 07:22:44;;;;;;;0.40;0.30;;;14.70;83.50;;;;;;5006245;28;20879;-76
2021/05/31 07:25:13;;;;;;;0.40;0.30;;;14.90;83.60;;;;;;5006796;28;20777;-77
2021/05/31 07:27:40;;;;;;;0.40;0.30;;;15.00;83.00;;;;;;5007341;28;20404;-76
2021/05/31 07:30:07;;;;;;;0.40;0.20;;;15.20;81.90;;;;;;5007499;28;20393;-76
2021/05/31 07:32:34;;;;;;;0.40;0.20;;;15.30;81.00;;;;;;5008287;28;20752;-78
2021/05/31 07:35:00;;;;;;;0.40;0.30;;;15.40;80.50;;;;;;5003801;28;20430;-75
2021/05/31 07:37:25;;;;;;;0.40;0.30;;;15.30;80.20;;;;;;5006434;28;20392;-76
2021/05/31 07:39:51;;;;;;;0.40;0.30;;;15.30;81.20;;;;;;4987501;28;20404;-73
2021/05/31 07:42:17;;;;;;;0.40;0.20;;;15.30;80.80;;;;;;5007412;28;20403;-76
2021/05/31 07:44:44;;;;;;;0.40;0.30;;;15.50;81.20;;;;;;5004985;28;20414;-76
2021/05/31 07:47:09;;;;;;;0.40;0.30;;;15.60;79.80;;;;;;5006713;28;20391;-76
2021/05/31 07:49:35;;;;;;;0.40;0.30;;;15.60;78.00;;;;;;5007804;28;21029;-73
2021/05/31 07:52:18;;;;;;;0.40;0.20;;;15.60;78.30;;;;;;5009340;28;20481;-74
2021/05/31 07:54:43;;;;;;;0.40;0.25;;;15.70;79.20;;;;;;5005061;28;20427;-75
2021/05/31 07:57:09;;;;;;;0.40;0.20;;;15.80;79.10;;;;;;5007809;28;20391;-72
2021/05/31 07:59:34;;;;;;;0.40;0.30;;;15.80;78.10;;;;;;5005844;28;21925;-76
2021/05/31 08:02:00;;;;;;;0.40;0.30;;;15.70;77.80;;;;;;5007378;28;20387;-76
2021/05/31 08:04:26;;;;;;;0.40;0.20;;;15.80;78.20;;;;;;5007931;28;20398;-79
2021/05/31 08:06:51;;;;;;;0.40;0.30;;;15.80;77.40;;;;;;5006663;28;20470;-74
2021/05/31 08:09:17;;;;;;;0.40;0.20;;;15.90;77.10;;;;;;5008819;28;20379;-76
2021/05/31 08:11:43;;;;;;;0.40;0.20;;;16.40;77.30;;;;;;4989036;28;20495;-75
2021/05/31 08:14:09;;;;;;;0.40;0.30;;;16.10;75.80;;;;;;4999026;28;20429;-75
2021/05/31 08:16:35;;;;;;;0.40;0.20;;;16.30;76.70;;;;;;4986519;28;20472;-78
2021/05/31 08:19:01;;;;;;;0.40;0.20;;;16.30;75.90;;;;;;4992630;28;20399;-75
2021/05/31 08:21:26;;;;;;;0.40;0.30;;;16.50;77.60;;;;;;5011835;28;20391;-76
2021/05/31 08:23:52;;;;;;;0.40;0.20;;;16.50;75.70;;;;;;4993540;28;20467;-77
2021/05/31 08:26:20;;;;;;;0.40;0.30;;;16.50;75.60;;;;;;5011330;28;21666;-76
2021/05/31 08:28:46;;;;;;;0.40;0.20;;;16.60;74.60;;;;;;5001951;28;20388;-77
2021/05/31 08:31:12;;;;;;;0.40;0.20;;;16.70;73.80;;;;;;5002534;28;21236;-77
2021/05/31 08:33:38;;;;;;;0.40;0.30;;;16.70;73.50;;;;;;5006114;28;20389;-77
2021/05/31 08:36:05;;;;;;;0.40;0.20;;;16.70;73.60;;;;;;5001396;28;20399;-76
2021/05/31 08:38:32;;;;;;;0.40;0.20;;;16.90;73.50;;;;;;5012988;28;21003;-76
2021/05/31 08:40:58;;;;;;;0.40;0.20;;;16.80;72.60;;;;;;4993323;28;20407;-77
2021/05/31 08:43:23;;;;;;;0.40;0.30;;;16.90;73.70;;;;;;5012823;28;20402;-77
2021/05/31 08:45:49;;;;;;;0.40;0.30;;;16.90;73.30;;;;;;5009617;28;20393;-77
2021/05/31 08:48:17;;;;;;;0.40;0.20;;;17.00;72.00;;;;;;5013367;28;20388;-77
2021/05/31 08:50:43;;;;;;;0.40;0.20;;;17.20;71.80;;;;;;5002867;28;20446;-76
2021/05/31 08:53:09;;;;;;;0.40;0.30;;;17.20;69.40;;;;;;5003632;28;20774;-77
2021/05/31 08:55:35;;;;;;;0.40;0.20;;;17.30;69.50;;;;;;5001600;28;20471;-77
2021/05/31 08:58:02;;;;;;;0.40;0.20;;;17.30;69.10;;;;;;5003100;28;20732;-74
2021/05/31 09:00:30;;;;;;;0.40;0.20;;;17.50;67.90;;;;;;5003142;28;20411;-76
2021/05/31 09:03:00;;;;;;;0.40;0.30;;;17.50;66.20;;;;;;4993199;28;20399;-76
2021/05/31 09:05:40;;;;;;;0.40;0.30;;;17.60;66.60;;;;;;5001166;28;20484;-78
2021/05/31 09:08:13;;;;;;;0.40;0.20;;;17.50;63.60;;;;;;4994858;28;20820;-77
2021/05/31 09:10:45;;;;;;;0.40;0.20;;;17.50;64.80;;;;;;5001957;28;20867;-81
2021/05/31 09:13:29;;;;;;;0.40;0.20;;;17.60;62.60;;;;;;5003125;28;20439;-75
2021/05/31 09:16:10;;;;;;;0.40;0.30;;;17.80;62.60;;;;;;4991230;28;20417;-77
2021/05/31 09:18:37;;;;;;;0.40;0.20;;;17.80;61.50;;;;;;5002509;28;20410;-77
2021/05/31 09:21:16;;;;;;;0.40;0.20;;;17.80;61.60;;;;;;5002804;28;20391;-80
2021/05/31 09:23:42;;;;;;;0.40;0.20;;;18.00;62.10;;;;;;4988278;28;20670;-75
2021/05/31 09:26:11;;;;;;;0.40;0.20;;;18.00;61.60;;;;;;5007688;28;20402;-78
2021/05/31 09:28:38;;;;;;;0.40;0.20;;;18.00;62.00;;;;;;5010587;28;20829;-79
2021/05/31 09:31:15;;;;;;;0.40;0.30;;;18.20;59.60;;;;;;5003650;28;20397;-76
2021/05/31 09:33:42;;;;;;;0.40;0.20;;;18.60;59.80;;;;;;5017657;28;20388;-75
2021/05/31 09:36:09;;;;;;;0.40;0.20;;;18.40;59.50;;;;;;4999973;28;20401;-76
2021/05/31 09:38:48;;;;;;;0.40;0.30;;;18.70;60.50;;;;;;5011126;28;20864;-76
2021/05/31 09:41:31;;;;;;;0.40;0.20;;;18.60;55.40;;;;;;5022870;28;20441;-78
2021/05/31 09:44:03;;;;;;;0.40;0.20;;;18.60;57.90;;;;;;5031623;28;20391;-75
2021/05/31 09:46:43;;;;;;;0.40;0.30;;;18.70;57.40;;;;;;5033803;28;20379;-75
2021/05/31 09:49:21;;;;;;;0.40;0.30;;;18.90;56.30;;;;;;5015760;28;20445;-76
2021/05/31 09:52:04;;;;;;;0.40;0.30;;;18.90;55.00;;;;;;5014883;28;20457;-75
2021/05/31 09:54:45;;;;;;;0.40;0.30;;;19.00;54.50;;;;;;5033049;28;20904;-77
2021/05/31 09:57:16;;;;;;;0.40;0.30;;;19.00;54.20;;;;;;5033598;28;20487;-77
2021/05/31 09:59:55;;;;;;;0.40;0.30;;;18.90;54.80;;;;;;5031241;28;20427;-78
2021/05/31 10:02:31;;;;;;;0.40;0.30;;;19.00;54.10;;;;;;5024407;28;20391;-75
2021/05/31 10:05:05;;;;;;;0.40;0.20;;;19.20;54.20;;;;;;4995577;28;20412;-76
2021/05/31 10:09:57;;;;;;;0.40;0.20;;;19.50;55.50;;;;;;5020310;28;20379;-77
2021/05/31 10:12:23;;;;;;;0.40;0.30;;;19.30;54.60;;;;;;5032116;28;20413;-74
2021/05/31 10:14:49;;;;;;;0.40;0.30;;;19.50;53.70;;;;;;5032444;28;20504;-73
2021/05/31 10:17:15;;;;;;;0.40;0.30;;;19.60;53.10;;;;;;5033125;28;20383;-76
2021/05/31 10:19:42;;;;;;;0.40;0.30;;;19.50;52.80;;;;;;5014830;28;20391;-80
2021/05/31 10:22:08;;;;;;;0.40;0.30;;;19.60;52.50;;;;;;5000017;28;20417;-80
2021/05/31 10:24:35;;;;;;;0.40;0.20;;;19.80;53.70;;;;;;5003570;28;20891;-74
2021/05/31 10:27:02;;;;;;;0.40;0.30;;;20.10;52.70;;;;;;5014204;28;20750;-75
2021/05/31 10:29:30;;;;;;;0.40;0.30;;;19.80;50.90;;;;;;5019827;28;20461;-75
2021/05/31 10:32:06;;;;;;;0.40;0.30;;;19.90;53.30;;;;;;5007803;28;20412;-76
2021/05/31 10:34:43;;;;;;;0.40;0.30;;;20.00;51.00;;;;;;5020350;28;20992;-75
2021/05/31 10:37:23;;;;;;;0.40;0.30;;;19.90;50.50;;;;;;5021864;28;20787;-77
2021/05/31 10:40:04;;;;;;;0.40;0.30;;;19.90;50.30;;;;;;5026046;28;20469;-77
2021/05/31 10:42:44;;;;;;;0.40;0.20;;;20.00;50.00;;;;;;5021653;28;20392;-75
2021/05/31 10:45:18;;;;;;;0.40;0.30;;;20.10;49.80;;;;;;5026895;28;20393;-76
2021/05/31 10:48:13;;;;;;;0.40;0.30;;;20.20;49.60;;;;;;5018360;28;20385;-76
2021/05/31 10:50:54;;;;;;;0.40;0.20;;;20.40;52.70;;;;;;5019893;28;20891;-77
2021/05/31 10:53:20;;;;;;;0.40;0.30;;;20.50;47.20;;;;;;5024180;28;20792;-76
2021/05/31 10:55:54;;;;;;;0.40;0.30;;;20.50;48.10;;;;;;5007508;28;20465;-77
2021/05/31 10:58:22;;;;;;;0.40;0.20;;;20.50;47.50;;;;;;5020085;28;20471;-76
2021/05/31 11:01:01;;;;;;;0.40;0.30;;;20.60;46.80;;;;;;5023267;28;20422;-76
2021/05/31 11:03:27;;;;;;;0.40;0.30;;;20.60;45.90;;;;;;5006126;28;20404;-75
2021/05/31 11:05:53;;;;;;;0.40;0.20;;;20.60;46.60;;;;;;5024534;28;20399;-75
2021/05/31 11:08:29;;;;;;;0.40;0.20;;;20.80;46.60;;;;;;5022364;28;20407;-77
2021/05/31 11:11:00;;;;;;;0.40;0.30;;;21.10;47.70;;;;;;5006285;28;20380;-77
2021/05/31 11:13:26;;;;;;;0.40;0.25;;;21.20;47.10;;;;;;5025219;28;20437;-77
2021/05/31 11:16:06;;;;;;;0.40;0.20;;;21.60;49.10;;;;;;5007274;28;20461;-77
2021/05/31 11:18:40;;;;;;;0.40;0.20;;;21.90;47.60;;;;;;5018074;28;20478;-76
2021/05/31 11:21:07;;;;;;;0.50;0.30;;;22.00;45.40;;;;;;5023884;28;20412;-77
2021/05/31 11:23:33;;;;;;;0.50;0.30;;;22.10;44.80;;;;;;5023736;28;20494;-76
2021/05/31 11:25:58;;;;;;;0.40;0.20;;;22.20;43.40;;;;;;5018156;28;20385;-76
2021/05/31 11:28:25;;;;;;;0.40;0.20;;;22.00;45.60;;;;;;5011426;28;20395;-76
2021/05/31 11:30:57;;;;;;;0.40;0.20;;;22.20;44.00;;;;;;5018879;28;20873;-78
2021/05/31 11:33:23;;;;;;;0.40;0.20;;;22.10;48.00;;;;;;5011744;28;20388;-77
2021/05/31 11:35:48;;;;;;;0.40;0.30;;;22.50;43.60;;;;;;5019816;28;20412;-79
2021/05/31 11:38:17;;;;;;;0.40;0.30;;;22.70;42.20;;;;;;5015961;28;20410;-74
2021/05/31 11:40:43;;;;;;;0.40;0.30;;;22.80;40.60;;;;;;5022108;28;20451;-76
2021/05/31 11:43:14;;;;;;;0.40;0.20;;;23.50;41.10;;;;;;5003855;28;20397;-77
2021/05/31 11:45:43;;;;;;;0.40;0.23;;;23.10;40.10;;;;;;5001543;28;20448;-75
2021/05/31 11:48:15;;;;;;;0.40;0.30;;;24.00;40.00;;;;;;5006920;28;20741;-76
2021/05/31 11:50:45;;;;;;;0.40;0.30;;;24.80;38.90;;;;;;5011245;28;20956;-78
2021/05/31 11:53:13;;;;;;;0.40;0.20;;;24.10;38.30;;;;;;5011210;28;20388;-76
2021/05/31 11:55:40;;;;;;;0.40;0.30;;;24.30;38.90;;;;;;5009420;28;20803;-77
2021/05/31 11:58:06;;;;;;;0.40;0.30;;;25.20;37.00;;;;;;5009766;28;20389;-76
2021/05/31 12:00:34;;;;;;;0.40;0.30;;;25.30;36.30;;;;;;5019387;28;20426;-77
2021/05/31 12:03:00;;;;;;;0.40;0.30;;;24.20;36.80;;;;;;5016775;28;20436;-75
2021/05/31 12:05:29;;;;;;;0.40;0.30;;;24.70;39.90;;;;;;5025469;28;20466;-76
2021/05/31 12:08:02;;;;;;;0.40;0.20;;;25.20;35.90;;;;;;5014345;28;20383;-75
2021/05/31 12:10:27;;;;;;;0.40;0.20;;;25.20;37.70;;;;;;5003924;28;20429;-75
2021/05/31 12:12:53;;;;;;;0.40;0.20;;;25.70;35.80;;;;;;5022326;28;20462;-75
2021/05/31 12:15:19;;;;;;;0.40;0.30;;;24.40;36.50;;;;;;5015008;28;20424;-76
2021/05/31 12:17:45;;;;;;;0.40;0.20;;;24.50;37.30;;;;;;5026820;28;20390;-76
2021/05/31 12:20:11;;;;;;;0.40;0.30;;;24.80;37.00;;;;;;5010773;28;20412;-76
2021/05/31 12:22:38;;;;;;;0.40;0.20;;;25.10;36.90;;;;;;5020461;28;20458;-75
2021/05/31 12:25:08;;;;;;;0.40;0.30;;;25.40;38.00;;;;;;5018528;28;20400;-73
2021/05/31 12:27:36;;;;;;;0.40;0.20;;;25.10;35.30;;;;;;5015088;28;20393;-73
2021/05/31 12:30:04;;;;;;;0.40;0.20;;;25.20;36.80;;;;;;5011103;28;20399;-74
2021/05/31 12:32:31;;;;;;;0.40;0.20;;;25.50;35.20;;;;;;5021389;28;20415;-74
2021/05/31 12:34:58;;;;;;;0.40;0.30;;;24.50;35.70;;;;;;5023142;28;20504;-75
2021/05/31 12:37:31;;;;;;;0.40;0.30;;;24.90;36.50;;;;;;5016645;28;20383;-74
2021/05/31 12:39:59;;;;;;;0.40;0.20;;;24.60;36.80;;;;;;5018543;28;20463;-74
2021/05/31 12:42:29;;;;;;;0.40;0.30;;;24.40;37.80;;;;;;5003106;28;20411;-74
2021/05/31 12:45:08;;;;;;;0.40;0.30;;;25.00;36.20;;;;;;5030869;28;20881;-72
2021/05/31 12:47:39;;;;;;;0.40;0.30;;;24.60;36.60;;;;;;5030449;28;20387;-73
2021/05/31 12:50:11;;;;;;;0.40;0.30;;;24.60;37.70;;;;;;5029693;28;20423;-75
2021/05/31 12:52:42;;;;;;;0.40;0.20;;;25.20;35.60;;;;;;5030657;28;20753;-73
2021/05/31 12:55:14;;;;;;;0.40;0.30;;;25.00;36.10;;;;;;5029700;28;20419;-74
2021/05/31 12:57:45;;;;;;;0.40;0.20;;;25.00;36.90;;;;;;5030095;28;20387;-74
2021/05/31 13:00:24;;;;;;;0.40;0.30;;;24.60;36.20;;;;;;4992440;28;21099;-75
2021/05/31 13:02:59;;;;;;;0.40;0.30;;;24.50;35.90;;;;;;5010409;28;20732;-81
2021/05/31 13:05:26;;;;;;;0.40;0.30;;;24.20;39.10;;;;;;5014331;28;20744;-75
2021/05/31 13:07:58;;;;;;;0.40;0.30;;;24.50;37.50;;;;;;5013775;28;20810;-77
2021/05/31 13:10:30;;;;;;;0.40;0.30;;;24.30;36.40;;;;;;5014045;28;21007;-74